»·PEaware :: N1BD KCRQ-KLAS

N1BD :: KCRQ-KLAS

FLIGHT INFORMATION

Flight Status: Arrived
Operator: Privately registered:
United States
More flights under this callsign
Pilot: Anonymous 26385 (26385)
Aircraft: SOCATA TBM-900
(TBM9)
More flights by this aircraft type
Origin: KCRQ McClellan-Palomar
United States
Destination: KLAS McCarran Intl
United States
More flights between these airports :: More routes between these airports
Route: +OCN V208 JLI V514 GFS WHIGG CRESO4
File this flight plan on PilotEdge
Remarks:
Altitude:
(Current/Filed)
23,000ft
Speed:
(Current/Filed)
190kts
Departed: 25-Mar-20 03:39 PM
Arrived: 25-Mar-20 04:35 PM
Distance/Time
Traveled:
205nm/0:55
Distance/Time
To Go:
Arrived

Flight Plot

Page will automatically refresh every two minutes.

Flight plan parsing failed; only flown route is shown


Map Options




Map Legend


Flown Route
Filed Route
Departure Airport
Arrival Airport
Navaid (VOR, NDB)
Fix

Horizontal Profiles

Position Reports

Time Latitude Longitude Heading Altitude Ground
Speed
25-Mar-20 15:26 33.126990 -117.278879 167 334ft 0kts
25-Mar-20 15:27 33.126990 -117.278879 167 334ft 0kts
25-Mar-20 15:28 33.126990 -117.278879 167 334ft 0kts
25-Mar-20 15:29 33.126990 -117.278879 167 334ft 0kts
25-Mar-20 15:30 33.126990 -117.278879 167 334ft 0kts
25-Mar-20 15:31 33.126990 -117.278879 167 334ft 0kts
25-Mar-20 15:32 33.126990 -117.278879 167 334ft 0kts
25-Mar-20 15:33 33.126990 -117.278879 167 334ft 0kts
25-Mar-20 15:34 33.126990 -117.278879 167 334ft 0kts
25-Mar-20 15:35 33.126990 -117.278879 167 334ft 0kts
25-Mar-20 15:36 33.126938 -117.278862 156 334ft 5kts
25-Mar-20 15:37 33.128211 -117.275128 79 334ft 25kts
25-Mar-20 15:38 33.128743 -117.272351 35 334ft 0kts
25-Mar-20 15:39 33.128338 -117.279935 259 406ft 103kts
25-Mar-20 15:40 33.124631 -117.319713 262 2775ft 126kts
25-Mar-20 15:40 33.119103 -117.364591 261 3011ft 184kts
25-Mar-20 15:42 33.109942 -117.438689 261 3002ft 199kts
25-Mar-20 15:43 33.085502 -117.475980 170 5701ft 145kts
25-Mar-20 15:43 33.078198 -117.441450 78 7834ft 155kts
25-Mar-20 15:44 33.084460 -117.388139 86 10271ft 175kts
25-Mar-20 15:46 33.090072 -117.315435 92 12827ft 202kts
25-Mar-20 15:46 33.094265 -117.257503 94 14864ft 213kts
25-Mar-20 15:47 33.099386 -117.185377 96 17299ft 225kts
25-Mar-20 15:48 33.104766 -117.108953 98 19660ft 238kts
25-Mar-20 15:49 33.122816 -117.031696 53 22075ft 265kts
25-Mar-20 15:50 33.169302 -116.953598 55 23133ft 333kts
25-Mar-20 15:51 33.226901 -116.854994 54 23090ft 377kts
25-Mar-20 15:52 33.287777 -116.750402 54 23102ft 387kts
25-Mar-20 15:53 33.349145 -116.644659 54 23070ft 386kts
25-Mar-20 15:54 33.410333 -116.538932 54 23016ft 386kts
25-Mar-20 15:55 33.471447 -116.433037 54 22987ft 387kts
25-Mar-20 15:56 33.532729 -116.326565 55 22967ft 387kts
25-Mar-20 15:57 33.593596 -116.220418 55 22969ft 386kts
25-Mar-20 15:58 33.666012 -116.128940 24 22980ft 377kts
25-Mar-20 15:59 33.754151 -116.059093 26 22976ft 380kts
25-Mar-20 16:00 33.842101 -115.988373 26 22972ft 382kts
25-Mar-20 16:01 33.930213 -115.917263 26 22977ft 382kts
25-Mar-20 16:02 34.018669 -115.845735 26 23025ft 382kts
25-Mar-20 16:03 34.106995 -115.774144 26 23059ft 382kts
25-Mar-20 16:04 34.186338 -115.686712 38 23061ft 386kts
25-Mar-20 16:05 34.265163 -115.598003 38 23058ft 388kts
25-Mar-20 16:06 34.347780 -115.518555 6 23068ft 363kts
25-Mar-20 16:07 34.444084 -115.478142 8 23024ft 367kts
25-Mar-20 16:08 34.539682 -115.436484 8 23029ft 367kts
25-Mar-20 16:09 34.635646 -115.394587 8 22983ft 367kts
25-Mar-20 16:10 34.731348 -115.352665 8 22951ft 367kts
25-Mar-20 16:11 34.827272 -115.310560 8 22930ft 365kts
25-Mar-20 16:12 34.921330 -115.269137 8 22913ft 356kts
25-Mar-20 16:13 35.018028 -115.226562 9 21386ft 379kts
25-Mar-20 16:14 35.105256 -115.188352 6 19857ft 377kts
25-Mar-20 16:15 35.162045 -115.206390 312 18439ft 308kts
25-Mar-20 16:16 35.228772 -115.266070 310 16999ft 293kts
25-Mar-20 16:17 35.293252 -115.325363 311 15715ft 288kts
25-Mar-20 16:18 35.356738 -115.383846 312 14467ft 281kts
25-Mar-20 16:19 35.418184 -115.440610 314 13277ft 275kts
25-Mar-20 16:20 35.479095 -115.496969 314 12101ft 268kts
25-Mar-20 16:21 35.543740 -115.477085 48 12061ft 292kts
25-Mar-20 16:22 35.598723 -115.401789 45 12052ft 298kts
25-Mar-20 16:23 35.655223 -115.325745 46 11344ft 309kts
25-Mar-20 16:24 35.713805 -115.248744 33 9824ft 305kts
25-Mar-20 16:25 35.791241 -115.208367 18 8335ft 301kts
25-Mar-20 16:26 35.870704 -115.186711 11 7047ft 274kts
25-Mar-20 16:27 35.941531 -115.167830 11 7050ft 253kts
25-Mar-20 16:28 36.011526 -115.149176 12 6169ft 263kts
25-Mar-20 16:29 36.073530 -115.116516 28 4909ft 223kts
25-Mar-20 16:30 36.116061 -115.097095 324 3487ft 125kts
25-Mar-20 16:31 36.132461 -115.128382 272 2888ft 100kts
25-Mar-20 16:32 36.114967 -115.147752 209 2558ft 84kts
25-Mar-20 16:33 36.092664 -115.160442 203 2109ft 51kts
25-Mar-20 16:34 36.089439 -115.163609 294 2128ft 8kts
25-Mar-20 16:35 36.086970 -115.166115 204 2143ft 23kts
25-Mar-20 16:36 36.081259 -115.170322 264 2167ft 20kts
25-Mar-20 16:37 36.080648 -115.170795 116 2169ft 0kts
25-Mar-20 16:38 36.080648 -115.170795 116 2169ft 0kts
25-Mar-20 16:39 36.080648 -115.170795 116 2169ft 0kts
25-Mar-20 16:40 36.080648 -115.170795 116 2169ft 0kts
25-Mar-20 16:41 36.080648 -115.170795 116 2169ft 0kts
25-Mar-20 16:42 36.080648 -115.170795 116 2169ft 0kts
25-Mar-20 16:43 36.080648 -115.170795 116 2169ft 0kts
25-Mar-20 16:44 36.080648 -115.170795 116 2169ft 0kts
25-Mar-20 16:45 36.080648 -115.170795 116 2169ft 0kts
25-Mar-20 16:46 36.080648 -115.170795 116 2169ft 0kts
25-Mar-20 16:47 36.080648 -115.170795 116 2169ft 0kts
25-Mar-20 16:48 36.080648 -115.170795 116 2169ft 0kts

Navigation Log

Ident Type
Flight plan parsing failed, navigation log unavailable